Wednesday, October 17, 2018, 12:08 PM EDT
Back to Local

KPNE, N.e. Philadelphia Airport

Location: Philadelphia, PA, United States Lat: 40.083
Local Time: 12:08 PM EDT (16:08 GMT) Lon: -75.017
Time Zone: US/Eastern Elev: 121 ft

Show me the last for .
Show Coded

Time T Td Feel RH Dir Speed Gust Alt SLP Vis Weather Sky Remarks
2018-10-17 10:54 59 40 - 49 250° 15 - 30.02 30.02 10 CLR None
2018-10-17 09:54 56 41 - 57 260° 12 - 30.04 30.04 10 CLR None
2018-10-17 08:54 52 41 - 66 250° 8 - 30.05 30.05 10 CLR None
2018-10-17 07:54 49 42 48 77 220° 3 - 30.04 30.03 10 CLR 6-hr Min Temp (8am): 46.9°F
6-hr Max Temp (8am): 50.0°F
2018-10-17 06:54 48 42 46 79 230° 5 - 30.05 30.05 10 CLR None
2018-10-17 05:54 47 42 45 83 250° 5 - 30.06 30.06 10 CLR None
2018-10-17 04:54 48 42 47 79 240° 3 - 30.05 30.05 10 CLR None
2018-10-17 03:54 48 42 - 79 - Calm - 30.05 30.05 10 CLR None
2018-10-17 02:54 50 41 48 71 280° 5 - 30.06 30.06 10 CLR None
2018-10-17 01:54 49 41 48 73 270° 3 - 30.08 30.08 10 CLR 6-hr Min Temp (2am): 48.9°F
6-hr Max Temp (2am): 52.0°F
2018-10-16 23:54 51 41 - 68 240° 5 - 30.09 30.09 10 CLR None
2018-10-16 22:54 50 42 - 74 - Calm - 30.10 30.10 10 CLR None
2018-10-16 21:54 52 39 - 61 230° 5 - 30.11 30.11 10 CLR None
2018-10-16 20:54 51 39 - 63 240° 3 - 30.11 30.11 10 CLR None
2018-10-16 19:54 52 38 - 58 270° 5 - 30.12 30.11 10 CLR 6-hr Min Temp (8pm): 51.1°F
6-hr Max Temp (8pm): 60.1°F
2018-10-16 18:54 52 37 - 56 250° 6 - 30.10 30.10 10 CLR None
2018-10-16 17:54 55 35 - 46 270° 10 - 30.11 30.11 10 CLR None
2018-10-16 16:54 56 35 - 45 280° 9 - 30.11 30.10 10 CLR None
2018-10-16 15:54 57 36 - 45 300° 7 - 30.10 30.10 10 CLR None
2018-10-16 14:54 58 35 - 42 290° 6 - 30.12 30.12 10 CLR None
2018-10-16 13:54 60 36 - 40 320° 12 - 30.14 30.13 10 CLR 6-hr Min Temp (2pm): 50.0°F
6-hr Max Temp (2pm): 60.1°F
2018-10-16 12:54 58 34 - 40 Variable 3 - 30.17 30.17 10 CLR None

Support USWX by starting your Amazon purchase here.